Time;durP1;ratioP1;P1;durP2;ratioP2;P2;SDS_P1;SDS_P2;PMS_P1;PMS_P2;Temp;Humidity;BMP_temperature;BMP_pressure;BME280_temperature;BME280_humidity;BME280_pressure;Samples;Min_cycle;Max_cycle;Signal;HPM_P1;HPM_P2
2023/12/31 00:01:35;;;;;;;5.10;2.80;;;;;;;;;;4930342;29;20036;-69
2023/12/31 00:04:02;;;;;;;2.80;2.50;;;;;;;;;;4943199;29;20059;-68
2023/12/31 00:06:28;;;;;;;3.10;2.80;;;;;;;;;;4941625;29;20075;-68
2023/12/31 00:08:54;;;;;;;5.05;2.70;;;;;;;;;;4929783;29;20040;-68
2023/12/31 00:11:21;;;;;;;5.55;2.75;;;;;;;;;;4946702;29;20043;-69
2023/12/31 00:13:47;;;;;;;4.10;2.58;;;;;;;;;;4931829;29;20209;-68
2023/12/31 00:16:14;;;;;;;6.25;3.35;;;;;;;;;;4928623;29;20142;-68
2023/12/31 00:18:40;;;;;;;4.68;3.33;;;;;;;;;;4936193;29;20130;-68
2023/12/31 00:21:06;;;;;;;3.55;2.65;;;9.50;99.90;;;;;;4933128;29;21349;-68
2023/12/31 00:23:32;;;;;;;6.75;2.80;;;;;;;;;;4934194;29;20055;-68
2023/12/31 00:26:00;;;;;;;5.63;3.50;;;;;;;;;;4945333;29;20043;-68
2023/12/31 00:28:26;;;;;;;3.28;2.38;;;;;;;;;;4941273;29;20051;-68
2023/12/31 00:30:52;;;;;;;5.22;2.85;;;;;;;;;;4944145;29;20074;-69
2023/12/31 00:33:18;;;;;;;5.60;2.65;;;;;;;;;;4929698;29;20138;-68
2023/12/31 00:35:44;;;;;;;2.90;2.33;;;;;;;;;;4929292;29;20212;-68
2023/12/31 00:38:10;;;;;;;3.90;3.15;;;;;;;;;;4919061;28;20164;-68
2023/12/31 00:40:36;;;;;;;4.68;2.80;;;;;;;;;;4929394;29;20119;-68
2023/12/31 00:43:02;;;;;;;5.25;2.50;;;;;;;;;;4930029;29;20999;-67
2023/12/31 00:45:28;;;;;;;4.60;2.78;;;;;;;;;;4919134;29;20131;-68
2023/12/31 00:47:54;;;;;;;4.20;2.40;;;;;;;;;;4943211;29;20159;-68
2023/12/31 00:50:20;;;;;;;5.95;2.50;;;;;;;;;;4922626;29;20047;-68
2023/12/31 00:52:46;;;;;;;4.35;2.30;;;9.30;99.90;;;;;;4927424;29;20086;-68
2023/12/31 00:55:12;;;;;;;3.65;2.33;;;;;;;;;;4945643;29;20047;-68
2023/12/31 00:57:38;;;;;;;5.30;2.40;;;;;;;;;;4928886;29;20071;-68
2023/12/31 01:00:05;;;;;;;5.38;2.50;;;;;;;;;;4927836;29;20070;-68
2023/12/31 01:02:31;;;;;;;2.58;1.95;;;;;;;;;;4938284;29;20116;-68
2023/12/31 01:04:57;;;;;;;3.33;2.10;;;9.40;99.90;;;;;;4940087;28;20493;-68
2023/12/31 01:07:23;;;;;;;4.05;2.40;;;;;;;;;;4924641;29;20047;-68
2023/12/31 01:09:49;;;;;;;2.78;2.00;;;;;;;;;;4920218;29;20071;-68
2023/12/31 01:12:15;;;;;;;4.43;2.15;;;;;;;;;;4930037;29;20889;-68
2023/12/31 01:14:41;;;;;;;2.35;2.03;;;;;;;;;;4926385;29;20062;-68
2023/12/31 01:17:08;;;;;;;3.53;2.60;;;;;;;;;;4927454;29;20053;-68
2023/12/31 01:19:35;;;;;;;4.53;2.63;;;;;;;;;;4925117;29;20047;-68
2023/12/31 01:22:01;;;;;;;7.15;2.10;;;;;;;;;;4925853;29;20422;-68
2023/12/31 01:24:27;;;;;;;3.17;2.42;;;;;;;;;;4928818;29;20051;-68
2023/12/31 01:26:53;;;;;;;2.75;1.80;;;;;;;;;;4943431;29;20048;-68
2023/12/31 01:29:19;;;;;;;4.05;2.75;;;;;;;;;;4926625;29;20039;-68
2023/12/31 01:31:45;;;;;;;2.75;1.88;;;;;;;;;;4926156;29;20539;-68
2023/12/31 01:34:11;;;;;;;7.05;2.10;;;;;;;;;;4944971;29;20070;-68
2023/12/31 01:36:37;;;;;;;3.40;2.88;;;;;;;;;;4924373;29;20209;-68
2023/12/31 01:39:03;;;;;;;4.60;2.20;;;;;;;;;;4926555;29;20047;-69
2023/12/31 01:41:29;;;;;;;3.83;2.00;;;;;;;;;;4928887;29;20062;-68
2023/12/31 01:44:02;;;;;;;4.28;2.88;;;;;;;;;;4944049;28;20503;-68
2023/12/31 01:46:29;;;;;;;4.43;2.30;;;;;;;;;;4941943;28;20051;-68
2023/12/31 01:48:55;;;;;;;4.65;2.30;;;;;;;;;;4945508;29;20039;-68
2023/12/31 01:51:22;;;;;;;2.92;2.55;;;;;;;;;;4912003;29;20051;-68
2023/12/31 01:53:48;;;;;;;2.60;2.08;;;8.90;99.90;;;;;;4927921;29;20051;-68
2023/12/31 01:56:14;;;;;;;2.50;2.10;;;;;;;;;;4928183;29;20833;-68
2023/12/31 01:58:41;;;;;;;3.38;2.35;;;;;;;;;;4927714;29;20046;-69
2023/12/31 02:01:07;;;;;;;3.45;1.92;;;;;;;;;;4920742;29;20051;-68
2023/12/31 02:03:34;;;;;;;2.90;1.95;;;;;;;;;;4941773;29;20102;-69
2023/12/31 02:06:01;;;;;;;3.67;2.03;;;;;;;;;;4941724;28;20807;-68
2023/12/31 02:08:27;;;;;;;4.68;1.65;;;;;;;;;;4927571;29;20678;-68
2023/12/31 02:10:53;;;;;;;3.00;2.70;;;;;;;;;;4925238;29;20997;-68
2023/12/31 02:13:19;;;;;;;2.25;1.45;;;;;;;;;;4926864;29;20043;-68
2023/12/31 02:15:45;;;;;;;3.42;1.92;;;;;;;;;;4944135;29;20051;-69
2023/12/31 02:18:11;;;;;;;3.20;1.70;;;;;;;;;;4930653;29;20040;-69
2023/12/31 02:20:37;;;;;;;2.03;1.65;;;;;;;;;;4919292;29;20058;-68
2023/12/31 02:23:03;;;;;;;2.15;1.65;;;;;;;;;;4937645;29;20039;-68
2023/12/31 02:25:30;;;;;;;2.03;1.52;;;;;;;;;;4923783;29;20106;-68
2023/12/31 02:27:56;;;;;;;1.40;1.30;;;;;;;;;;4938379;29;20575;-67
2023/12/31 02:30:23;;;;;;;2.25;1.63;;;;;;;;;;4938137;29;20040;-69
2023/12/31 02:32:49;;;;;;;2.10;1.17;;;;;;;;;;4941445;29;20058;-68
2023/12/31 02:35:15;;;;;;;3.10;1.58;;;;;;;;;;4919157;29;20047;-69
2023/12/31 02:37:41;;;;;;;2.40;1.15;;;;;;;;;;4925619;29;20051;-68
2023/12/31 02:40:07;;;;;;;3.30;1.42;;;;;;;;;;4927232;29;20051;-69
2023/12/31 02:42:33;;;;;;;1.70;1.23;;;;;;;;;;4927672;29;20051;-68
2023/12/31 02:44:59;;;;;;;3.08;1.95;;;;;;;;;;4927148;29;20047;-67
2023/12/31 02:47:25;;;;;;;2.17;1.35;;;;;;;;;;4942383;29;20073;-68
2023/12/31 02:49:51;;;;;;;2.10;1.45;;;;;;;;;;4944318;28;20063;-68
2023/12/31 02:52:17;;;;;;;2.28;1.58;;;;;;;;;;4938026;29;20044;-68
2023/12/31 02:54:45;;;;;;;2.47;1.63;;;;;;;;;;4940865;29;20388;-68
2023/12/31 02:57:11;;;;;;;1.67;1.55;;;;;;;;;;4920203;29;20059;-68
2023/12/31 02:59:37;;;;;;;2.25;1.77;;;;;;;;;;4925378;29;20791;-68
2023/12/31 03:02:04;;;;;;;3.13;1.35;;;;;;;;;;4923747;29;20062;-69
2023/12/31 03:04:30;;;;;;;1.88;1.60;;;;;;;;;;4922784;29;20047;-69
2023/12/31 03:06:57;;;;;;;2.25;1.75;;;;;;;;;;4926586;29;20047;-68
2023/12/31 03:09:23;;;;;;;2.65;1.55;;;;;;;;;;4943576;29;20085;-68
2023/12/31 03:11:50;;;;;;;2.13;1.45;;;;;;;;;;4944534;29;20122;-68
2023/12/31 03:14:17;;;;;;;4.57;1.50;;;;;;;;;;4913699;29;20047;-68
2023/12/31 03:16:45;;;;;;;2.80;1.40;;;;;;;;;;4937171;29;20043;-67
2023/12/31 03:19:12;;;;;;;5.32;1.58;;;;;;;;;;4910719;29;20524;-68
2023/12/31 03:21:38;;;;;;;2.33;1.65;;;;;;;;;;4920431;29;20040;-68
2023/12/31 03:24:04;;;;;;;2.20;1.85;;;;;;;;;;4921063;29;20118;-68
2023/12/31 03:26:31;;;;;;;2.30;1.67;;;;;;;;;;4941939;29;20137;-68
2023/12/31 03:28:57;;;;;;;3.75;1.58;;;;;;;;;;4922608;29;20058;-68
2023/12/31 03:31:23;;;;;;;4.00;1.80;;;;;;;;;;4924879;29;20051;-68
2023/12/31 03:33:49;;;;;;;4.05;2.08;;;;;;;;;;4945444;29;20059;-68
2023/12/31 03:36:15;;;;;;;4.18;2.17;;;;;;;;;;4927891;29;20522;-68
2023/12/31 03:38:44;;;;;;;3.83;1.98;;;;;;;;;;4930240;29;20054;-68
2023/12/31 03:41:10;;;;;;;3.47;2.10;;;9.20;99.90;;;;;;4928612;29;20182;-69
2023/12/31 03:43:36;;;;;;;2.95;2.10;;;;;;;;;;4926538;29;20833;-68
2023/12/31 03:46:02;;;;;;;2.92;1.90;;;;;;;;;;4920711;29;20043;-68
2023/12/31 03:48:28;;;;;;;2.50;2.30;;;;;;;;;;4943261;29;20039;-68
2023/12/31 03:50:54;;;;;;;5.85;2.78;;;;;;;;;;4942447;29;20043;-68
2023/12/31 03:53:20;;;;;;;2.65;2.10;;;;;;;;;;4939033;29;20085;-68
2023/12/31 03:55:46;;;;;;;4.00;2.30;;;;;;;;;;4925896;29;20054;-68
2023/12/31 03:58:12;;;;;;;3.08;2.08;;;;;;;;;;4927144;29;20098;-68
2023/12/31 04:00:38;;;;;;;3.28;1.85;;;;;;;;;;4938895;29;20051;-69
2023/12/31 04:03:04;;;;;;;4.53;2.42;;;;;;;;;;4927091;29;20059;-68
2023/12/31 04:05:31;;;;;;;4.53;2.33;;;;;;;;;;4901263;29;20452;-69
2023/12/31 04:07:57;;;;;;;3.55;2.40;;;;;;;;;;4920700;29;20051;-68
2023/12/31 04:10:23;;;;;;;3.95;2.45;;;;;;;;;;4946262;29;20495;-69
2023/12/31 04:12:49;;;;;;;3.35;2.15;;;;;;;;;;4942784;29;20484;-69
2023/12/31 04:15:15;;;;;;;3.22;2.40;;;;;;;;;;4912680;29;20122;-68
2023/12/31 04:17:41;;;;;;;5.20;2.72;;;;;;;;;;4923282;29;20111;-68
2023/12/31 04:20:07;;;;;;;4.10;2.60;;;;;;;;;;4946489;29;20047;-68
2023/12/31 04:22:33;;;;;;;2.95;2.30;;;;;;;;;;4930048;29;20051;-68
2023/12/31 04:24:59;;;;;;;6.60;2.75;;;;;;;;;;4929276;29;20079;-67
2023/12/31 04:27:25;;;;;;;4.00;2.40;;;;;;;;;;4919631;29;20050;-69
2023/12/31 04:29:53;;;;;;;3.50;2.20;;;;;;;;;;4932997;29;20044;-68
2023/12/31 04:32:19;;;;;;;5.57;2.47;;;;;;;;;;4941741;29;20854;-69
2023/12/31 04:34:45;;;;;;;3.97;2.55;;;;;;;;;;4912786;29;20146;-68
2023/12/31 04:37:11;;;;;;;3.38;2.72;;;;;;;;;;4911618;29;20855;-68
2023/12/31 04:39:37;;;;;;;3.67;2.08;;;;;;;;;;4929622;29;20084;-68
2023/12/31 04:42:04;;;;;;;3.92;2.22;;;;;;;;;;4928137;29;20082;-69
2023/12/31 04:44:29;;;;;;;2.45;2.10;;;;;;;;;;4946434;28;20566;-68
2023/12/31 04:46:56;;;;;;;3.28;2.50;;;;;;;;;;4927298;28;20054;-68
2023/12/31 04:49:21;;;;;;;4.15;2.00;;;;;;;;;;4943712;28;20103;-68
2023/12/31 04:51:47;;;;;;;3.08;2.25;;;;;;;;;;4930035;29;20043;-68
2023/12/31 04:54:14;;;;;;;4.85;2.88;;;;;;;;;;4946509;29;20078;-68
2023/12/31 04:56:40;;;;;;;3.72;2.38;;;;;;;;;;4946802;29;20087;-68
2023/12/31 04:59:06;;;;;;;6.55;2.65;;;;;;;;;;4946702;29;20819;-68
2023/12/31 05:01:32;;;;;;;4.63;2.63;;;;;;;;;;4946429;29;20427;-67
2023/12/31 05:03:58;;;;;;;3.75;2.35;;;;;;;;;;4928554;29;20053;-68
2023/12/31 05:06:25;;;;;;;6.32;2.50;;;;;;;;;;4928962;29;20043;-68
2023/12/31 05:08:51;;;;;;;4.22;2.72;;;;;;;;;;4946299;29;20411;-68
2023/12/31 05:11:17;;;;;;;3.63;2.35;;;;;;;;;;4946268;28;20043;-68
2023/12/31 05:13:43;;;;;;;4.65;2.42;;;;;;;;;;4927727;29;20041;-69
2023/12/31 05:16:13;;;;;;;4.63;2.95;;;;;;;;;;4928718;29;20043;-68
2023/12/31 05:18:39;;;;;;;3.40;2.05;;;;;;;;;;4946239;29;20503;-69
2023/12/31 05:21:05;;;;;;;3.83;2.30;;;;;;;;;;4928752;29;20131;-69
2023/12/31 05:23:31;;;;;;;5.15;2.67;;;;;;;;;;4947237;29;20808;-68
2023/12/31 05:25:57;;;;;;;3.45;2.17;;;;;;;;;;4929298;29;20489;-68
2023/12/31 05:28:23;;;;;;;3.67;2.55;;;;;;;;;;4929506;29;20062;-68
2023/12/31 05:30:50;;;;;;;3.63;2.40;;;;;;;;;;4927987;29;20122;-68
2023/12/31 05:33:16;;;;;;;3.45;2.33;;;;;;;;;;4926581;29;20058;-68
2023/12/31 05:35:42;;;;;;;2.97;2.53;;;;;;;;;;4942751;29;20609;-68
2023/12/31 05:38:08;;;;;;;5.00;2.22;;;;;;;;;;4945525;29;20046;-68
2023/12/31 05:40:33;;;;;;;3.33;2.50;;;9.10;99.90;;;;;;4927631;29;20071;-68
2023/12/31 05:42:59;;;;;;;3.72;2.38;;;;;;;;;;4944392;29;20400;-69
2023/12/31 05:45:25;;;;;;;2.63;2.25;;;;;;;;;;4911186;29;20043;-68
2023/12/31 05:47:51;;;;;;;4.20;2.22;;;;;;;;;;4912817;29;20099;-68
2023/12/31 05:50:17;;;;;;;4.03;2.30;;;;;;;;;;4946174;29;20047;-68
2023/12/31 05:52:44;;;;;;;5.93;2.70;;;;;;;;;;4920007;29;20043;-68
2023/12/31 05:55:10;;;;;;;2.53;2.22;;;;;;;;;;4945074;29;20058;-68
2023/12/31 05:57:36;;;;;;;4.32;2.85;;;;;;;;;;4927068;29;20150;-68
2023/12/31 06:00:05;;;;;;;3.28;2.97;;;;;;;;;;4926995;29;20740;-68
2023/12/31 06:02:31;;;;;;;5.10;2.20;;;;;;;;;;4926753;29;20521;-68
2023/12/31 06:04:58;;;;;;;3.22;2.33;;;;;;;;;;4944681;29;20047;-67
2023/12/31 06:07:24;;;;;;;4.88;2.80;;;;;;;;;;4926730;29;20046;-67
2023/12/31 06:09:50;;;;;;;3.78;2.65;;;;;;;;;;4944393;29;20039;-68
2023/12/31 06:12:17;;;;;;;4.93;2.80;;;;;;;;;;4927131;29;20051;-68
2023/12/31 06:14:43;;;;;;;4.20;2.13;;;;;;;;;;4925576;29;20058;-68
2023/12/31 06:17:09;;;;;;;4.55;2.70;;;;;;;;;;4926733;29;20115;-68
2023/12/31 06:19:35;;;;;;;5.18;2.28;;;;;;;;;;4927279;29;20131;-68
2023/12/31 06:22:01;;;;;;;4.13;2.53;;;;;;;;;;4926841;29;20884;-68
2023/12/31 06:24:27;;;;;;;3.58;2.30;;;;;;;;;;4944257;29;20055;-68
2023/12/31 06:26:53;;;;;;;3.00;2.50;;;;;;;;;;4944271;29;20061;-68
2023/12/31 06:29:19;;;;;;;2.15;1.90;;;;;;;;;;4926803;29;20778;-68
2023/12/31 06:31:45;;;;;;;3.42;2.30;;;;;;;;;;4934632;29;20102;-68
2023/12/31 06:34:12;;;;;;;3.25;2.20;;;;;;;;;;4924650;29;20122;-68
2023/12/31 06:36:38;;;;;;;2.85;1.92;;;;;;;;;;4925404;29;20058;-68
2023/12/31 06:39:04;;;;;;;4.15;2.30;;;;;;;;;;4903249;29;20044;-68
2023/12/31 06:41:31;;;;;;;2.25;1.88;;;;;;;;;;4905188;29;20127;-68
2023/12/31 06:43:57;;;;;;;3.40;2.42;;;;;;;;;;4907468;29;20059;-68
2023/12/31 06:46:23;;;;;;;5.95;2.17;;;;;;;;;;4907660;29;20055;-68
2023/12/31 06:48:49;;;;;;;2.55;1.90;;;;;;;;;;4891837;29;20047;-68
2023/12/31 06:51:15;;;;;;;2.83;2.35;;;;;;;;;;4920691;29;20424;-68
2023/12/31 06:53:41;;;;;;;2.95;2.25;;;;;;;;;;4908199;29;20050;-68
2023/12/31 06:56:08;;;;;;;2.92;1.83;;;;;;;;;;4908039;29;20053;-68
2023/12/31 06:58:35;;;;;;;2.08;1.88;;;;;;;;;;4908001;29;20043;-68
2023/12/31 07:01:02;;;;;;;3.65;2.25;;;;;;;;;;4907984;29;20055;-68
2023/12/31 07:03:28;;;;;;;2.70;2.10;;;;;;;;;;4924939;29;20053;-68
2023/12/31 07:05:54;;;;;;;3.00;1.90;;;;;;;;;;4909597;29;20071;-68
2023/12/31 07:08:20;;;;;;;3.25;2.40;;;;;;;;;;4908490;29;20130;-68
2023/12/31 07:10:46;;;;;;;2.45;1.92;;;;;;;;;;4928411;29;20043;-68
2023/12/31 07:13:12;;;;;;;3.85;2.60;;;;;;;;;;4921645;29;20063;-68
2023/12/31 07:15:38;;;;;;;3.95;2.60;;;;;;;;;;4910558;29;20043;-68
2023/12/31 07:18:05;;;;;;;2.92;2.25;;;;;;;;;;4906068;29;20075;-68
2023/12/31 07:20:31;;;;;;;2.78;2.58;;;;;;;;;;4910792;29;20039;-68
2023/12/31 07:22:57;;;;;;;2.72;1.98;;;;;;;;;;4927448;29;20115;-67
2023/12/31 07:25:25;;;;;;;3.35;2.22;;;;;;;;;;4910584;29;20468;-68
2023/12/31 07:27:52;;;;;;;4.07;2.42;;;;;;;;;;4906007;29;20100;-67
2023/12/31 07:30:18;;;;;;;4.38;2.67;;;;;;;;;;4907900;29;20063;-72
2023/12/31 07:32:44;;;;;;;5.32;2.40;;;;;;;;;;4921502;29;20063;-68
2023/12/31 07:35:10;;;;;;;3.20;2.22;;;;;;;;;;4926390;28;20102;-68
2023/12/31 07:37:38;;;;;;;3.55;2.63;;;;;;;;;;4938536;28;20059;-68
2023/12/31 07:40:05;;;;;;;3.35;2.50;;;;;;;;;;4920118;29;20055;-68
2023/12/31 07:42:31;;;;;;;2.95;2.45;;;;;;;;;;4937349;28;20054;-68
2023/12/31 07:44:57;;;;;;;3.78;2.53;;;;;;;;;;4920780;29;20051;-70
2023/12/31 07:47:23;;;;;;;3.95;2.80;;;;;;;;;;4907459;28;20052;-71
2023/12/31 07:49:49;;;;;;;5.30;3.58;;;;;;;;;;4928478;29;20518;-70
2023/12/31 07:52:15;;;;;;;2.90;2.53;;;;;;;;;;4909680;28;20146;-69
2023/12/31 07:54:41;;;;;;;4.72;2.35;;;;;;;;;;4905348;29;20043;-69
2023/12/31 07:57:07;;;;;;;3.65;2.53;;;;;;;;;;4935195;28;20062;-70
2023/12/31 07:59:35;;;;;;;4.43;2.72;;;;;;;;;;4923510;28;20043;-70
2023/12/31 08:02:02;;;;;;;2.83;2.50;;;;;;;;;;4914387;29;20724;-70
2023/12/31 08:04:29;;;;;;;3.30;2.53;;;;;;;;;;4908099;28;20058;-71
2023/12/31 08:06:55;;;;;;;3.42;2.20;;;;;;;;;;4914459;28;20086;-71
2023/12/31 08:09:23;;;;;;;2.67;2.20;;;;;;;;;;4907247;29;20043;-71
2023/12/31 08:11:49;;;;;;;4.43;2.33;;;;;;;;;;4921944;29;20051;-70
2023/12/31 08:14:15;;;;;;;3.55;2.30;;;;;;;;;;4925163;29;20054;-70
2023/12/31 08:16:41;;;;;;;2.35;2.13;;;;;;;;;;4937539;28;20052;-70
2023/12/31 08:19:07;;;;;;;3.53;2.55;;;;;;;;;;4923610;29;20177;-71
2023/12/31 08:21:33;;;;;;;6.05;2.08;;;;;;;;;;4900159;29;20083;-72
2023/12/31 08:23:59;;;;;;;5.70;3.15;;;;;;;;;;4922851;29;20054;-70
2023/12/31 08:26:25;;;;;;;3.38;2.28;;;;;;;;;;4921073;28;20158;-72
2023/12/31 08:28:51;;;;;;;3.75;2.60;;;;;;;;;;4906982;29;20038;-71
2023/12/31 08:31:17;;;;;;;3.38;2.85;;;;;;;;;;4922903;29;20051;-70
2023/12/31 08:33:44;;;;;;;3.83;2.85;;;;;;;;;;4934969;28;20055;-69
2023/12/31 08:36:10;;;;;;;3.50;2.67;;;;;;;;;;4936220;28;20126;-69
2023/12/31 08:38:36;;;;;;;4.60;2.92;;;;;;;;;;4905453;29;20043;-69
2023/12/31 08:41:02;;;;;;;3.72;2.78;;;;;;;;;;4922587;29;20047;-70
2023/12/31 08:43:28;;;;;;;6.63;3.00;;;;;;;;;;4939412;28;20089;-69
2023/12/31 08:45:54;;;;;;;2.88;2.58;;;;;;;;;;4919470;29;20157;-69
2023/12/31 08:48:21;;;;;;;3.38;2.55;;;;;;;;;;4917692;29;20220;-69
2023/12/31 08:50:47;;;;;;;3.75;2.88;;;;;;;;;;4913090;29;20856;-68
2023/12/31 08:53:13;;;;;;;3.00;2.17;;;;;;;;;;4916722;29;20498;-68
2023/12/31 08:55:39;;;;;;;5.18;2.28;;;;;;;;;;4917731;29;20147;-69
2023/12/31 08:58:06;;;;;;;3.80;2.78;;;;;;;;;;4915982;29;20062;-71
2023/12/31 09:00:36;;;;;;;3.53;2.50;;;;;;;;;;4908276;29;20165;-72
2023/12/31 09:03:03;;;;;;;3.58;3.10;;;;;;;;;;4916008;29;20090;-72
2023/12/31 09:05:38;;;;;;;2.45;2.20;;;;;;;;;;4933873;29;20055;-71
2023/12/31 09:08:05;;;;;;;6.82;3.47;;;;;;;;;;4929849;29;20054;-71
2023/12/31 09:10:31;;;;;;;5.40;3.08;;;;;;;;;;4922063;29;20047;-73
2023/12/31 09:13:02;;;;;;;2.58;2.00;;;;;;;;;;4921525;29;20071;-73
2023/12/31 09:15:47;;;;;;;2.90;2.47;;;;;;;;;;4926359;29;20830;-72
2023/12/31 09:18:36;;;;;;;4.07;2.60;;;;;;;;;;4928365;29;20031;-73
2023/12/31 09:21:40;;;;;;;4.28;2.78;;;;;;;;;;4935931;29;20038;-71
2023/12/31 09:24:06;;;;;;;2.95;2.35;;;;;;;;;;4939097;29;20051;-72
2023/12/31 09:26:32;;;;;;;6.25;3.75;;;;;;;;;;4931888;29;20154;-73
2023/12/31 09:28:58;;;;;;;6.90;3.10;;;;;;;;;;4935503;28;20850;-72
2023/12/31 09:31:25;;;;;;;5.53;2.95;;;;;;;;;;4907663;29;20060;-71
2023/12/31 09:33:55;;;;;;;6.25;3.67;;;;;;;;;;4937804;29;20097;-71
2023/12/31 09:36:21;;;;;;;4.03;2.80;;;;;;;;;;4930383;29;20067;-70
2023/12/31 09:38:47;;;;;;;4.10;2.40;;;;;;;;;;4939049;29;20723;-71
2023/12/31 09:41:16;;;;;;;4.95;2.70;;;;;;;;;;4938777;29;20050;-72
2023/12/31 09:43:43;;;;;;;3.90;2.80;;;;;;;;;;4922015;29;20031;-71
2023/12/31 09:46:09;;;;;;;4.32;3.05;;;;;;;;;;4928734;29;20154;-71
2023/12/31 09:48:35;;;;;;;3.88;2.97;;;;;;;;;;4936325;29;20042;-73
2023/12/31 09:51:02;;;;;;;4.78;3.00;;;;;;;;;;4911610;29;20044;-71
2023/12/31 09:53:28;;;;;;;3.92;2.78;;;;;;;;;;4920905;29;20533;-72
2023/12/31 09:55:56;;;;;;;4.13;2.75;;;;;;;;;;4922380;29;20095;-73
2023/12/31 09:58:23;;;;;;;4.57;3.60;;;;;;;;;;4934368;29;20238;-72
2023/12/31 10:00:52;;;;;;;4.85;2.75;;;;;;;;;;4938635;29;20046;-73
2023/12/31 10:03:19;;;;;;;6.18;3.15;;;;;;;;;;4906337;29;20106;-72
2023/12/31 10:05:46;;;;;;;5.63;3.50;;;;;;;;;;4932439;29;20198;-71
2023/12/31 10:08:13;;;;;;;3.25;2.60;;;;;;;;;;4933791;29;20043;-72
2023/12/31 10:10:40;;;;;;;4.25;2.80;;;;;;;;;;4936189;29;20143;-71
2023/12/31 10:13:10;;;;;;;4.18;3.20;;;;;;;;;;4933205;28;20054;-72
2023/12/31 10:15:36;;;;;;;4.28;2.80;;;;;;;;;;4921078;29;20578;-72
2023/12/31 10:18:04;;;;;;;5.43;3.30;;;;;;;;;;4930018;29;20043;-72
2023/12/31 10:20:30;;;;;;;4.78;3.88;;;;;;;;;;4920063;29;20067;-74
2023/12/31 10:22:56;;;;;;;5.00;3.40;;;;;;;;;;4921709;29;20043;-74
2023/12/31 10:25:24;;;;;;;5.90;3.47;;;;;;;;;;4933952;29;20811;-72
2023/12/31 10:27:50;;;;;;;6.65;3.20;;;;;;;;;;4937690;29;20031;-72
2023/12/31 10:30:16;;;;;;;4.32;3.20;;;;;;;;;;4937947;29;20051;-72
2023/12/31 10:32:42;;;;;;;5.38;3.40;;;;;;;;;;4935551;29;20055;-72
2023/12/31 10:35:08;;;;;;;3.88;3.22;;;;;;;;;;4939648;29;20062;-72
2023/12/31 10:37:35;;;;;;;4.90;3.10;;;;;;;;;;4938597;29;20039;-73
2023/12/31 10:40:18;;;;;;;4.05;2.60;;;;;;;;;;4921733;29;20091;-74
2023/12/31 10:42:55;;;;;;;5.03;3.40;;;;;;;;;;4922288;29;20050;-72
2023/12/31 10:45:22;;;;;;;6.82;3.00;;;;;;;;;;4924034;29;20153;-71
2023/12/31 10:47:53;;;;;;;4.72;2.80;;;;;;;;;;4925226;29;20046;-71
2023/12/31 10:50:25;;;;;;;7.28;3.50;;;;;;;;;;4937675;29;20055;-71
2023/12/31 10:53:01;;;;;;;6.03;4.00;;;;;;;;;;4937461;29;20043;-72
2023/12/31 10:55:27;;;;;;;4.15;3.40;;;;;;;;;;4932177;29;20052;-73
2023/12/31 10:57:54;;;;;;;3.08;2.53;;;;;;;;;;4937198;29;20503;-71
2023/12/31 11:00:20;;;;;;;4.32;2.80;;;;;;;;;;4935803;29;20606;-72
2023/12/31 11:02:47;;;;;;;4.15;2.67;;;;;;;;;;4924263;29;20043;-71
2023/12/31 11:05:17;;;;;;;4.65;3.55;;;;;;;;;;4938656;29;20058;-72
2023/12/31 11:07:43;;;;;;;6.72;3.47;;;;;;;;;;4936896;28;20058;-71
2023/12/31 11:10:17;;;;;;;5.03;2.85;;;;;;;;;;4936061;29;20072;-76
2023/12/31 11:12:53;;;;;;;2.72;1.75;;;;;;;;;;4920512;29;20039;-73
2023/12/31 11:15:28;;;;;;;2.67;1.08;;;;;;;;;;4912170;29;20047;-75
2023/12/31 11:18:03;;;;;;;1.45;1.00;;;;;;;;;;4926025;29;20047;-71
2023/12/31 11:20:35;;;;;;;2.83;1.20;;;;;;;;;;4933592;29;20051;-71
2023/12/31 11:23:01;;;;;;;4.05;1.52;;;;;;;;;;4934388;29;20057;-71
2023/12/31 11:25:27;;;;;;;2.78;1.10;;;;;;;;;;4922980;29;20048;-71
2023/12/31 11:28:00;;;;;;;1.20;1.00;;;;;;;;;;4938207;29;20451;-72
2023/12/31 11:31:09;;;;;;;2.20;0.90;;;;;;;;;;4942455;29;20118;-77
2023/12/31 11:33:57;;;;;;;1.48;1.23;;;;;;;;;;4941658;29;20047;-74
2023/12/31 11:36:27;;;;;;;4.18;1.45;;;;;;;;;;4924049;29;20051;-74
2023/12/31 11:38:58;;;;;;;2.17;1.30;;;;;;;;;;4923404;28;20498;-74
2023/12/31 11:41:31;;;;;;;1.40;0.90;;;;;;;;;;4930924;29;20086;-72
2023/12/31 11:43:57;;;;;;;1.77;1.10;;;;;;;;;;4921034;29;20043;-73
2023/12/31 11:46:37;;;;;;;2.17;1.63;;;;;;;;;;4919816;29;20091;-73
2023/12/31 11:49:03;;;;;;;1.92;1.33;;;;;;;;;;4936618;29;20087;-71
2023/12/31 11:51:30;;;;;;;3.20;1.30;;;;;;;;;;4937872;28;20678;-72
2023/12/31 11:54:00;;;;;;;2.15;1.27;;;;;;;;;;4931255;29;20074;-72
2023/12/31 11:56:28;;;;;;;1.85;1.20;;;;;;;;;;4936446;29;20043;-72
2023/12/31 11:58:55;;;;;;;2.45;1.30;;;;;;;;;;4923767;29;20050;-71
2023/12/31 12:01:21;;;;;;;1.83;1.40;;;;;;;;;;4935642;28;20117;-73
2023/12/31 12:03:47;;;;;;;2.15;1.30;;;;;;;;;;4939980;29;20054;-74
2023/12/31 12:06:13;;;;;;;3.53;1.10;;;;;;;;;;4923028;29;20047;-71
2023/12/31 12:08:39;;;;;;;1.85;1.08;;;;;;;;;;4933750;29;20720;-71
2023/12/31 12:11:05;;;;;;;3.10;1.60;;;;;;;;;;4939151;29;20051;-72
2023/12/31 12:13:31;;;;;;;2.30;1.25;;;;;;;;;;4944075;28;20046;-71
2023/12/31 12:15:58;;;;;;;3.35;1.52;;;;;;;;;;4941192;29;20426;-74
2023/12/31 12:18:34;;;;;;;1.58;1.30;;;;;;;;;;4935906;29;20554;-75
2023/12/31 12:21:00;;;;;;;3.40;1.55;;;;;;;;;;4938404;29;20163;-73
2023/12/31 12:23:27;;;;;;;4.10;1.67;;;;;;;;;;4922398;29;20047;-73
2023/12/31 12:25:53;;;;;;;2.65;1.58;;;;;;;;;;4924212;29;20047;-74
2023/12/31 12:28:20;;;;;;;2.55;1.48;;;;;;;;;;4919190;29;20613;-71
2023/12/31 12:30:46;;;;;;;4.60;1.58;;;;;;;;;;4938054;29;20134;-70
2023/12/31 12:33:12;;;;;;;2.55;1.10;;;;;;;;;;4928238;29;20109;-72
2023/12/31 12:35:42;;;;;;;2.85;1.40;;;;;;;;;;4913418;29;20044;-72
2023/12/31 12:38:08;;;;;;;2.38;1.40;;;;;;;;;;4923461;29;20051;-72
2023/12/31 12:40:34;;;;;;;5.57;1.40;;;;;;;;;;4921169;29;20046;-72
2023/12/31 12:43:02;;;;;;;3.10;1.73;;;;;;;;;;4933916;29;20098;-73
2023/12/31 12:45:29;;;;;;;1.65;1.55;;;;;;;;;;4922087;29;20047;-73
2023/12/31 12:47:58;;;;;;;3.13;1.50;;;;;;;;;;4919596;29;20044;-71
2023/12/31 12:50:26;;;;;;;1.70;1.45;;;;;;;;;;4936012;28;20054;-70
2023/12/31 12:52:53;;;;;;;2.20;1.42;;;;;;;;;;4931980;29;20048;-70
2023/12/31 12:55:19;;;;;;;2.60;1.30;;;;;;;;;;4937948;29;20109;-71
2023/12/31 12:57:45;;;;;;;2.25;1.27;;;;;;;;;;4935894;29;20039;-71
2023/12/31 13:00:12;;;;;;;1.58;1.30;;;;;;;;;;4935024;29;20992;-69
2023/12/31 13:02:38;;;;;;;3.38;1.58;;;;;;;;;;4919423;29;20545;-70
2023/12/31 13:05:04;;;;;;;3.10;1.48;;;;;;;;;;4935762;28;20561;-74
2023/12/31 13:07:30;;;;;;;1.92;1.70;;;;;;;;;;4939248;29;20047;-72
2023/12/31 13:10:02;;;;;;;2.67;1.67;;;;;;;;;;4939850;29;20562;-73
2023/12/31 13:12:28;;;;;;;2.65;1.58;;;;;;;;;;4921827;29;20035;-72
2023/12/31 13:14:54;;;;;;;1.92;1.10;;;;;;;;;;4930633;29;20039;-74
2023/12/31 13:17:30;;;;;;;3.00;1.33;;;;;;;;;;4933758;28;20051;-72
2023/12/31 13:19:59;;;;;;;2.22;1.38;;;;;;;;;;4918193;29;20070;-72
2023/12/31 13:22:26;;;;;;;4.53;1.85;;;;;;;;;;4931897;29;20061;-74
2023/12/31 13:24:52;;;;;;;2.75;1.10;;;;;;;;;;4920156;29;20079;-73
2023/12/31 13:27:20;;;;;;;2.72;1.25;;;;;;;;;;4934281;29;20134;-76
2023/12/31 13:30:00;;;;;;;3.33;1.10;;;;;;;;;;4918626;29;20042;-76
2023/12/31 13:32:30;;;;;;;3.17;1.25;;;;;;;;;;4915012;29;20542;-73
2023/12/31 13:34:56;;;;;;;2.60;1.30;;;;;;;;;;4936315;29;20058;-74
2023/12/31 13:37:22;;;;;;;4.00;1.10;;;;;;;;;;4919385;29;20060;-74
2023/12/31 13:39:50;;;;;;;4.45;1.35;;;;;;;;;;4927817;29;20845;-77
2023/12/31 13:42:16;;;;;;;5.75;1.52;;;;;;;;;;4932892;29;20762;-74
2023/12/31 13:44:42;;;;;;;4.20;1.58;;;;;;;;;;4935368;29;20050;-72
2023/12/31 13:47:08;;;;;;;5.97;1.42;;;;;;;;;;4931592;29;20517;-74
2023/12/31 13:49:34;;;;;;;3.33;1.38;;;;;;;;;;4930916;29;20039;-75
2023/12/31 13:52:00;;;;;;;2.20;1.38;;;;;;;;;;4936281;29;20482;-77
2023/12/31 13:54:26;;;;;;;4.82;1.65;;;;;;;;;;4935234;29;20083;-76
2023/12/31 13:56:52;;;;;;;5.47;1.70;;;;;;;;;;4920798;29;20146;-75
2023/12/31 13:59:50;;;;;;;5.13;2.00;;;;;;;;;;4933090;29;20074;-75
2023/12/31 14:02:18;;;;;;;3.25;2.00;;;;;;;;;;4913876;29;20180;-77
2023/12/31 14:04:48;;;;;;;6.13;1.83;;;;;;;;;;4951142;28;20051;-76
2023/12/31 14:07:47;;;;;;;4.18;2.13;;;;;;;;;;4942752;28;20115;-77
2023/12/31 14:10:14;;;;;;;4.63;1.58;;;;;;;;;;4939929;29;20035;-75
2023/12/31 14:12:41;;;;;;;4.97;2.35;;;;;;;;;;4922859;29;20050;-76
2023/12/31 14:15:38;;;;;;;5.72;2.20;;;;;;;;;;4920279;29;20063;-76
2023/12/31 14:18:28;;;;;;;6.13;2.13;;;;;;;;;;4939362;29;20042;-76
2023/12/31 14:21:04;;;;;;;10.50;2.47;;;;;;;;;;4908394;29;20039;-75
2023/12/31 14:24:03;;;;;;;3.97;2.27;;;;;;;;;;4936955;29;20055;-73
2023/12/31 14:26:40;;;;;;;3.47;2.70;;;;;;;;;;4924289;29;20318;-73
2023/12/31 14:29:10;;;;;;;4.68;2.33;;;;;;;;;;4945463;29;20043;-72
2023/12/31 14:31:36;;;;;;;8.27;2.78;;;;;;;;;;4951112;28;20090;-73
2023/12/31 14:34:28;;;;;;;7.90;2.88;;;;;;;;;;4931585;28;20109;-75
2023/12/31 14:37:15;;;;;;;7.18;2.85;;;;;;;;;;4947309;28;20054;-74
2023/12/31 14:40:20;;;;;;;7.85;2.88;;;;;;;;;;4942286;29;20109;-74
2023/12/31 14:43:18;;;;;;;6.65;2.20;;;;;;;;;;4924456;29;20106;-74
2023/12/31 14:45:56;;;;;;;4.47;1.90;;;;;;;;;;4922710;29;20070;-74